sensor_id;sensor_type;location;lat;lon;timestamp;P1;durP1;ratioP1;P2;durP2;ratioP2
26062;SDS011;13837;48.562;12.108;2023-05-07T00:01:59;13.50;;;12.60;;
26062;SDS011;13837;48.562;12.108;2023-05-07T00:04:25;13.35;;;12.55;;
26062;SDS011;13837;48.562;12.108;2023-05-07T00:06:53;13.80;;;12.80;;
26062;SDS011;13837;48.562;12.108;2023-05-07T00:09:20;13.20;;;12.23;;
26062;SDS011;13837;48.562;12.108;2023-05-07T00:11:46;13.25;;;12.30;;
26062;SDS011;13837;48.562;12.108;2023-05-07T00:14:12;14.25;;;13.05;;
26062;SDS011;13837;48.562;12.108;2023-05-07T00:16:38;13.60;;;12.68;;
26062;SDS011;13837;48.562;12.108;2023-05-07T00:19:04;13.27;;;12.40;;
26062;SDS011;13837;48.562;12.108;2023-05-07T00:21:30;14.20;;;13.13;;
26062;SDS011;13837;48.562;12.108;2023-05-07T00:23:56;14.77;;;13.32;;
26062;SDS011;13837;48.562;12.108;2023-05-07T00:26:22;13.82;;;12.93;;
26062;SDS011;13837;48.562;12.108;2023-05-07T00:28:50;13.93;;;12.90;;
26062;SDS011;13837;48.562;12.108;2023-05-07T00:31:16;13.25;;;12.25;;
26062;SDS011;13837;48.562;12.108;2023-05-07T00:33:42;13.13;;;12.23;;
26062;SDS011;13837;48.562;12.108;2023-05-07T00:36:08;12.77;;;11.88;;
26062;SDS011;13837;48.562;12.108;2023-05-07T00:38:34;12.90;;;12.00;;
26062;SDS011;13837;48.562;12.108;2023-05-07T00:41:01;13.07;;;12.15;;
26062;SDS011;13837;48.562;12.108;2023-05-07T00:43:27;14.25;;;13.10;;
26062;SDS011;13837;48.562;12.108;2023-05-07T00:45:53;13.32;;;12.15;;
26062;SDS011;13837;48.562;12.108;2023-05-07T00:48:20;12.88;;;12.07;;
26062;SDS011;13837;48.562;12.108;2023-05-07T00:50:46;13.68;;;12.57;;
26062;SDS011;13837;48.562;12.108;2023-05-07T00:53:12;13.77;;;12.60;;
26062;SDS011;13837;48.562;12.108;2023-05-07T00:55:38;13.77;;;12.77;;
26062;SDS011;13837;48.562;12.108;2023-05-07T00:58:05;12.95;;;12.18;;
26062;SDS011;13837;48.562;12.108;2023-05-07T01:00:31;13.18;;;12.27;;
26062;SDS011;13837;48.562;12.108;2023-05-07T01:02:57;13.98;;;12.65;;
26062;SDS011;13837;48.562;12.108;2023-05-07T01:05:24;14.80;;;12.60;;
26062;SDS011;13837;48.562;12.108;2023-05-07T01:07:50;14.45;;;13.55;;
26062;SDS011;13837;48.562;12.108;2023-05-07T01:10:17;13.85;;;12.77;;
26062;SDS011;13837;48.562;12.108;2023-05-07T01:12:44;14.07;;;12.93;;
26062;SDS011;13837;48.562;12.108;2023-05-07T01:15:11;14.00;;;13.05;;
26062;SDS011;13837;48.562;12.108;2023-05-07T01:17:38;14.52;;;13.40;;
26062;SDS011;13837;48.562;12.108;2023-05-07T01:20:07;13.75;;;12.80;;
26062;SDS011;13837;48.562;12.108;2023-05-07T01:22:36;14.05;;;13.05;;
26062;SDS011;13837;48.562;12.108;2023-05-07T01:25:03;15.15;;;13.93;;
26062;SDS011;13837;48.562;12.108;2023-05-07T01:27:31;13.90;;;12.90;;
26062;SDS011;13837;48.562;12.108;2023-05-07T01:29:59;13.65;;;12.68;;
26062;SDS011;13837;48.562;12.108;2023-05-07T01:32:27;14.23;;;13.23;;
26062;SDS011;13837;48.562;12.108;2023-05-07T01:34:54;14.93;;;13.52;;
26062;SDS011;13837;48.562;12.108;2023-05-07T01:37:21;14.80;;;13.70;;
26062;SDS011;13837;48.562;12.108;2023-05-07T01:39:47;14.10;;;13.13;;
26062;SDS011;13837;48.562;12.108;2023-05-07T01:42:13;14.50;;;13.40;;
26062;SDS011;13837;48.562;12.108;2023-05-07T01:44:39;14.48;;;13.52;;
26062;SDS011;13837;48.562;12.108;2023-05-07T01:47:06;15.38;;;13.45;;
26062;SDS011;13837;48.562;12.108;2023-05-07T01:49:32;14.48;;;13.40;;
26062;SDS011;13837;48.562;12.108;2023-05-07T01:51:58;14.65;;;13.55;;
26062;SDS011;13837;48.562;12.108;2023-05-07T01:54:27;15.57;;;14.45;;
26062;SDS011;13837;48.562;12.108;2023-05-07T01:56:55;15.20;;;13.98;;
26062;SDS011;13837;48.562;12.108;2023-05-07T01:59:22;15.07;;;13.95;;
26062;SDS011;13837;48.562;12.108;2023-05-07T02:01:48;15.15;;;13.65;;
26062;SDS011;13837;48.562;12.108;2023-05-07T02:04:14;14.50;;;13.35;;
26062;SDS011;13837;48.562;12.108;2023-05-07T02:06:40;14.70;;;13.40;;
26062;SDS011;13837;48.562;12.108;2023-05-07T02:09:08;14.85;;;13.40;;
26062;SDS011;13837;48.562;12.108;2023-05-07T02:11:36;14.57;;;13.23;;
26062;SDS011;13837;48.562;12.108;2023-05-07T02:14:02;14.02;;;13.02;;
26062;SDS011;13837;48.562;12.108;2023-05-07T02:16:28;15.73;;;13.32;;
26062;SDS011;13837;48.562;12.108;2023-05-07T02:18:54;13.60;;;12.65;;
26062;SDS011;13837;48.562;12.108;2023-05-07T02:21:21;13.63;;;12.73;;
26062;SDS011;13837;48.562;12.108;2023-05-07T02:23:47;13.23;;;12.23;;
26062;SDS011;13837;48.562;12.108;2023-05-07T02:26:13;12.75;;;11.93;;
26062;SDS011;13837;48.562;12.108;2023-05-07T02:28:39;13.95;;;12.65;;
26062;SDS011;13837;48.562;12.108;2023-05-07T02:31:05;13.07;;;12.13;;
26062;SDS011;13837;48.562;12.108;2023-05-07T02:33:32;13.40;;;12.40;;
26062;SDS011;13837;48.562;12.108;2023-05-07T02:36:07;13.88;;;12.90;;
26062;SDS011;13837;48.562;12.108;2023-05-07T02:38:36;13.18;;;12.38;;
26062;SDS011;13837;48.562;12.108;2023-05-07T02:41:02;13.98;;;12.95;;
26062;SDS011;13837;48.562;12.108;2023-05-07T02:43:28;14.38;;;13.20;;
26062;SDS011;13837;48.562;12.108;2023-05-07T02:46:04;14.35;;;13.32;;
26062;SDS011;13837;48.562;12.108;2023-05-07T02:48:33;13.63;;;12.73;;
26062;SDS011;13837;48.562;12.108;2023-05-07T02:51:00;13.65;;;12.57;;
26062;SDS011;13837;48.562;12.108;2023-05-07T02:53:26;13.75;;;12.70;;
26062;SDS011;13837;48.562;12.108;2023-05-07T02:55:53;13.82;;;12.85;;
26062;SDS011;13837;48.562;12.108;2023-05-07T02:58:19;14.32;;;13.13;;
26062;SDS011;13837;48.562;12.108;2023-05-07T03:00:45;14.50;;;13.38;;
26062;SDS011;13837;48.562;12.108;2023-05-07T03:03:37;14.00;;;12.85;;
26062;SDS011;13837;48.562;12.108;2023-05-07T03:06:03;13.93;;;12.93;;
26062;SDS011;13837;48.562;12.108;2023-05-07T03:08:29;14.88;;;13.55;;
26062;SDS011;13837;48.562;12.108;2023-05-07T03:10:55;15.05;;;13.77;;
26062;SDS011;13837;48.562;12.108;2023-05-07T03:13:22;15.63;;;14.35;;
26062;SDS011;13837;48.562;12.108;2023-05-07T03:15:48;14.27;;;13.27;;
26062;SDS011;13837;48.562;12.108;2023-05-07T03:18:14;15.30;;;14.00;;
26062;SDS011;13837;48.562;12.108;2023-05-07T03:20:40;14.98;;;13.88;;
26062;SDS011;13837;48.562;12.108;2023-05-07T03:23:06;15.25;;;14.23;;
26062;SDS011;13837;48.562;12.108;2023-05-07T03:25:32;15.02;;;13.80;;
26062;SDS011;13837;48.562;12.108;2023-05-07T03:27:59;15.23;;;14.02;;
26062;SDS011;13837;48.562;12.108;2023-05-07T03:30:33;15.23;;;13.90;;
26062;SDS011;13837;48.562;12.108;2023-05-07T03:32:59;14.80;;;13.65;;
26062;SDS011;13837;48.562;12.108;2023-05-07T03:35:25;14.90;;;13.90;;
26062;SDS011;13837;48.562;12.108;2023-05-07T03:37:51;14.88;;;13.50;;
26062;SDS011;13837;48.562;12.108;2023-05-07T03:40:19;15.13;;;13.82;;
26062;SDS011;13837;48.562;12.108;2023-05-07T03:42:49;14.45;;;13.45;;
26062;SDS011;13837;48.562;12.108;2023-05-07T03:45:18;14.50;;;13.55;;
26062;SDS011;13837;48.562;12.108;2023-05-07T03:47:50;13.80;;;12.90;;
26062;SDS011;13837;48.562;12.108;2023-05-07T03:50:19;15.35;;;14.05;;
26062;SDS011;13837;48.562;12.108;2023-05-07T03:52:45;16.23;;;14.77;;
26062;SDS011;13837;48.562;12.108;2023-05-07T03:55:13;46.67;;;27.80;;
26062;SDS011;13837;48.562;12.108;2023-05-07T03:57:45;18.15;;;16.25;;
26062;SDS011;13837;48.562;12.108;2023-05-07T04:00:11;17.17;;;15.57;;
26062;SDS011;13837;48.562;12.108;2023-05-07T04:02:45;16.02;;;14.68;;
26062;SDS011;13837;48.562;12.108;2023-05-07T04:05:14;16.20;;;15.10;;
26062;SDS011;13837;48.562;12.108;2023-05-07T04:07:42;14.73;;;13.63;;
26062;SDS011;13837;48.562;12.108;2023-05-07T04:10:10;14.87;;;13.97;;
26062;SDS011;13837;48.562;12.108;2023-05-07T04:12:39;15.43;;;14.32;;
26062;SDS011;13837;48.562;12.108;2023-05-07T04:15:07;14.82;;;13.63;;
26062;SDS011;13837;48.562;12.108;2023-05-07T04:17:33;14.68;;;13.57;;
26062;SDS011;13837;48.562;12.108;2023-05-07T04:20:00;14.68;;;13.68;;
26062;SDS011;13837;48.562;12.108;2023-05-07T04:22:27;16.65;;;15.15;;
26062;SDS011;13837;48.562;12.108;2023-05-07T04:24:54;16.02;;;14.77;;
26062;SDS011;13837;48.562;12.108;2023-05-07T04:27:20;15.77;;;14.70;;
26062;SDS011;13837;48.562;12.108;2023-05-07T04:29:46;15.23;;;14.23;;
26062;SDS011;13837;48.562;12.108;2023-05-07T04:32:14;15.77;;;14.82;;
26062;SDS011;13837;48.562;12.108;2023-05-07T04:34:40;15.73;;;14.63;;
26062;SDS011;13837;48.562;12.108;2023-05-07T04:37:07;15.00;;;13.82;;
26062;SDS011;13837;48.562;12.108;2023-05-07T04:39:33;15.57;;;14.35;;
26062;SDS011;13837;48.562;12.108;2023-05-07T04:42:01;14.80;;;13.95;;
26062;SDS011;13837;48.562;12.108;2023-05-07T04:44:28;14.65;;;13.75;;
26062;SDS011;13837;48.562;12.108;2023-05-07T04:46:56;15.13;;;13.85;;
26062;SDS011;13837;48.562;12.108;2023-05-07T04:49:23;16.75;;;14.57;;
26062;SDS011;13837;48.562;12.108;2023-05-07T04:51:53;15.45;;;13.90;;
26062;SDS011;13837;48.562;12.108;2023-05-07T04:54:21;14.90;;;13.73;;
26062;SDS011;13837;48.562;12.108;2023-05-07T04:56:47;15.32;;;14.02;;
26062;SDS011;13837;48.562;12.108;2023-05-07T04:59:13;14.98;;;13.82;;
26062;SDS011;13837;48.562;12.108;2023-05-07T05:01:40;15.70;;;14.50;;
26062;SDS011;13837;48.562;12.108;2023-05-07T05:04:06;15.23;;;14.00;;
26062;SDS011;13837;48.562;12.108;2023-05-07T05:06:32;15.13;;;14.00;;
26062;SDS011;13837;48.562;12.108;2023-05-07T05:09:00;15.00;;;13.95;;
26062;SDS011;13837;48.562;12.108;2023-05-07T05:11:29;15.60;;;14.48;;
26062;SDS011;13837;48.562;12.108;2023-05-07T05:13:55;14.27;;;13.35;;
26062;SDS011;13837;48.562;12.108;2023-05-07T05:16:21;16.42;;;15.27;;
26062;SDS011;13837;48.562;12.108;2023-05-07T05:18:47;16.50;;;15.05;;
26062;SDS011;13837;48.562;12.108;2023-05-07T05:21:16;18.58;;;17.05;;
26062;SDS011;13837;48.562;12.108;2023-05-07T05:23:45;17.77;;;16.33;;
26062;SDS011;13837;48.562;12.108;2023-05-07T05:26:13;18.17;;;16.67;;
26062;SDS011;13837;48.562;12.108;2023-05-07T05:28:40;18.05;;;16.60;;
26062;SDS011;13837;48.562;12.108;2023-05-07T05:31:07;17.90;;;16.52;;
26062;SDS011;13837;48.562;12.108;2023-05-07T05:33:35;17.48;;;16.02;;
26062;SDS011;13837;48.562;12.108;2023-05-07T05:36:03;18.58;;;16.95;;
26062;SDS011;13837;48.562;12.108;2023-05-07T05:38:31;18.58;;;17.00;;
26062;SDS011;13837;48.562;12.108;2023-05-07T05:40:57;18.13;;;16.63;;
26062;SDS011;13837;48.562;12.108;2023-05-07T05:43:23;18.55;;;16.95;;
26062;SDS011;13837;48.562;12.108;2023-05-07T05:45:49;18.60;;;17.00;;
26062;SDS011;13837;48.562;12.108;2023-05-07T05:48:16;18.90;;;17.15;;
26062;SDS011;13837;48.562;12.108;2023-05-07T05:50:42;18.05;;;16.52;;
26062;SDS011;13837;48.562;12.108;2023-05-07T05:53:08;17.98;;;16.38;;
26062;SDS011;13837;48.562;12.108;2023-05-07T05:55:35;17.60;;;16.05;;
26062;SDS011;13837;48.562;12.108;2023-05-07T05:58:01;16.92;;;15.70;;
26062;SDS011;13837;48.562;12.108;2023-05-07T06:00:29;17.73;;;16.23;;
26062;SDS011;13837;48.562;12.108;2023-05-07T06:03:00;17.17;;;15.77;;
26062;SDS011;13837;48.562;12.108;2023-05-07T06:05:27;16.73;;;15.43;;
26062;SDS011;13837;48.562;12.108;2023-05-07T06:07:55;17.00;;;15.75;;
26062;SDS011;13837;48.562;12.108;2023-05-07T06:10:21;16.35;;;15.05;;
26062;SDS011;13837;48.562;12.108;2023-05-07T06:12:47;15.85;;;14.57;;
26062;SDS011;13837;48.562;12.108;2023-05-07T06:15:14;15.68;;;14.57;;
26062;SDS011;13837;48.562;12.108;2023-05-07T06:17:41;16.40;;;15.18;;
26062;SDS011;13837;48.562;12.108;2023-05-07T06:20:09;15.90;;;14.65;;
26062;SDS011;13837;48.562;12.108;2023-05-07T06:22:35;16.02;;;14.50;;
26062;SDS011;13837;48.562;12.108;2023-05-07T06:25:02;15.35;;;14.10;;
26062;SDS011;13837;48.562;12.108;2023-05-07T06:27:28;15.55;;;14.18;;
26062;SDS011;13837;48.562;12.108;2023-05-07T06:29:55;14.52;;;13.43;;
26062;SDS011;13837;48.562;12.108;2023-05-07T06:32:21;14.43;;;13.23;;
26062;SDS011;13837;48.562;12.108;2023-05-07T06:34:48;14.95;;;13.65;;
26062;SDS011;13837;48.562;12.108;2023-05-07T06:37:14;14.82;;;13.80;;
26062;SDS011;13837;48.562;12.108;2023-05-07T06:39:53;13.02;;;12.13;;
26062;SDS011;13837;48.562;12.108;2023-05-07T06:42:19;14.85;;;13.63;;
26062;SDS011;13837;48.562;12.108;2023-05-07T06:44:47;14.23;;;12.93;;
26062;SDS011;13837;48.562;12.108;2023-05-07T06:47:15;14.07;;;12.85;;
26062;SDS011;13837;48.562;12.108;2023-05-07T06:49:44;13.93;;;12.82;;
26062;SDS011;13837;48.562;12.108;2023-05-07T06:52:13;13.55;;;12.15;;
26062;SDS011;13837;48.562;12.108;2023-05-07T06:54:39;13.88;;;12.63;;
26062;SDS011;13837;48.562;12.108;2023-05-07T06:57:06;12.95;;;11.90;;
26062;SDS011;13837;48.562;12.108;2023-05-07T06:59:33;12.63;;;11.73;;
26062;SDS011;13837;48.562;12.108;2023-05-07T07:01:59;12.70;;;11.80;;
26062;SDS011;13837;48.562;12.108;2023-05-07T07:04:25;12.45;;;11.45;;
26062;SDS011;13837;48.562;12.108;2023-05-07T07:06:59;12.75;;;11.90;;
26062;SDS011;13837;48.562;12.108;2023-05-07T07:09:25;12.35;;;11.25;;
26062;SDS011;13837;48.562;12.108;2023-05-07T07:11:53;12.57;;;11.30;;
26062;SDS011;13837;48.562;12.108;2023-05-07T07:14:19;12.77;;;11.77;;
26062;SDS011;13837;48.562;12.108;2023-05-07T07:16:49;12.18;;;11.18;;
26062;SDS011;13837;48.562;12.108;2023-05-07T07:19:17;12.90;;;11.82;;
26062;SDS011;13837;48.562;12.108;2023-05-07T07:21:46;12.25;;;11.35;;
26062;SDS011;13837;48.562;12.108;2023-05-07T07:24:13;12.57;;;11.52;;
26062;SDS011;13837;48.562;12.108;2023-05-07T07:26:45;13.27;;;11.98;;
26062;SDS011;13837;48.562;12.108;2023-05-07T07:29:12;12.95;;;11.95;;
26062;SDS011;13837;48.562;12.108;2023-05-07T07:31:40;12.40;;;11.50;;
26062;SDS011;13837;48.562;12.108;2023-05-07T07:34:07;12.68;;;11.70;;
26062;SDS011;13837;48.562;12.108;2023-05-07T07:36:33;13.23;;;12.02;;
26062;SDS011;13837;48.562;12.108;2023-05-07T07:39:00;13.40;;;12.30;;
26062;SDS011;13837;48.562;12.108;2023-05-07T07:41:26;13.30;;;12.00;;
26062;SDS011;13837;48.562;12.108;2023-05-07T07:43:53;13.43;;;12.32;;
26062;SDS011;13837;48.562;12.108;2023-05-07T07:46:19;12.85;;;11.85;;
26062;SDS011;13837;48.562;12.108;2023-05-07T07:48:46;13.13;;;12.05;;
26062;SDS011;13837;48.562;12.108;2023-05-07T07:51:12;13.93;;;12.63;;
26062;SDS011;13837;48.562;12.108;2023-05-07T07:53:39;13.50;;;12.23;;
26062;SDS011;13837;48.562;12.108;2023-05-07T07:56:06;13.43;;;12.35;;
26062;SDS011;13837;48.562;12.108;2023-05-07T07:58:33;12.65;;;11.40;;
26062;SDS011;13837;48.562;12.108;2023-05-07T08:01:01;12.52;;;11.38;;
26062;SDS011;13837;48.562;12.108;2023-05-07T08:03:27;13.55;;;12.10;;
26062;SDS011;13837;48.562;12.108;2023-05-07T08:05:57;12.65;;;11.55;;
26062;SDS011;13837;48.562;12.108;2023-05-07T08:08:24;13.88;;;12.77;;
26062;SDS011;13837;48.562;12.108;2023-05-07T08:10:51;13.15;;;11.90;;
26062;SDS011;13837;48.562;12.108;2023-05-07T08:13:25;12.98;;;11.70;;
26062;SDS011;13837;48.562;12.108;2023-05-07T08:15:51;13.65;;;12.48;;
26062;SDS011;13837;48.562;12.108;2023-05-07T08:18:18;13.93;;;12.55;;
26062;SDS011;13837;48.562;12.108;2023-05-07T08:20:44;13.65;;;12.23;;
26062;SDS011;13837;48.562;12.108;2023-05-07T08:23:15;13.27;;;11.88;;
26062;SDS011;13837;48.562;12.108;2023-05-07T08:25:43;13.20;;;11.80;;
26062;SDS011;13837;48.562;12.108;2023-05-07T08:28:10;12.73;;;11.43;;
26062;SDS011;13837;48.562;12.108;2023-05-07T08:30:37;12.25;;;11.00;;
26062;SDS011;13837;48.562;12.108;2023-05-07T08:33:03;11.80;;;10.70;;
26062;SDS011;13837;48.562;12.108;2023-05-07T08:35:29;13.40;;;10.55;;
26062;SDS011;13837;48.562;12.108;2023-05-07T08:37:55;11.77;;;10.77;;
26062;SDS011;13837;48.562;12.108;2023-05-07T08:40:23;11.60;;;10.50;;
26062;SDS011;13837;48.562;12.108;2023-05-07T08:42:51;11.05;;;10.05;;
26062;SDS011;13837;48.562;12.108;2023-05-07T08:45:17;10.90;;;9.95;;
26062;SDS011;13837;48.562;12.108;2023-05-07T08:47:52;10.70;;;9.73;;
26062;SDS011;13837;48.562;12.108;2023-05-07T08:50:23;12.13;;;10.07;;
26062;SDS011;13837;48.562;12.108;2023-05-07T08:52:50;11.65;;;10.55;;
26062;SDS011;13837;48.562;12.108;2023-05-07T08:55:17;10.73;;;9.63;;
26062;SDS011;13837;48.562;12.108;2023-05-07T08:57:44;10.43;;;9.50;;
26062;SDS011;13837;48.562;12.108;2023-05-07T09:00:12;10.32;;;9.32;;
26062;SDS011;13837;48.562;12.108;2023-05-07T09:02:39;11.27;;;10.00;;
26062;SDS011;13837;48.562;12.108;2023-05-07T09:05:07;9.90;;;9.02;;
26062;SDS011;13837;48.562;12.108;2023-05-07T09:07:34;10.27;;;9.45;;
26062;SDS011;13837;48.562;12.108;2023-05-07T09:10:02;10.50;;;9.50;;
26062;SDS011;13837;48.562;12.108;2023-05-07T09:12:30;9.52;;;8.73;;
26062;SDS011;13837;48.562;12.108;2023-05-07T09:14:56;10.07;;;9.18;;
26062;SDS011;13837;48.562;12.108;2023-05-07T09:17:23;10.27;;;9.18;;
26062;SDS011;13837;48.562;12.108;2023-05-07T09:19:49;10.32;;;8.70;;
26062;SDS011;13837;48.562;12.108;2023-05-07T09:22:16;10.82;;;8.65;;
26062;SDS011;13837;48.562;12.108;2023-05-07T09:24:51;9.65;;;8.77;;
26062;SDS011;13837;48.562;12.108;2023-05-07T09:27:20;9.82;;;8.93;;
26062;SDS011;13837;48.562;12.108;2023-05-07T09:29:46;9.40;;;8.43;;
26062;SDS011;13837;48.562;12.108;2023-05-07T09:32:14;8.85;;;8.05;;
26062;SDS011;13837;48.562;12.108;2023-05-07T09:34:42;10.18;;;8.98;;
26062;SDS011;13837;48.562;12.108;2023-05-07T09:37:08;8.77;;;7.97;;
26062;SDS011;13837;48.562;12.108;2023-05-07T09:39:42;11.23;;;7.80;;
26062;SDS011;13837;48.562;12.108;2023-05-07T09:42:09;9.32;;;7.20;;
26062;SDS011;13837;48.562;12.108;2023-05-07T09:44:36;7.78;;;7.07;;
26062;SDS011;13837;48.562;12.108;2023-05-07T09:47:06;9.40;;;8.40;;
26062;SDS011;13837;48.562;12.108;2023-05-07T09:49:39;7.82;;;7.10;;
26062;SDS011;13837;48.562;12.108;2023-05-07T09:52:08;10.18;;;7.53;;
26062;SDS011;13837;48.562;12.108;2023-05-07T09:54:39;8.30;;;7.43;;
26062;SDS011;13837;48.562;12.108;2023-05-07T09:57:09;7.15;;;6.45;;
26062;SDS011;13837;48.562;12.108;2023-05-07T09:59:38;7.70;;;6.85;;
26062;SDS011;13837;48.562;12.108;2023-05-07T10:02:09;6.82;;;6.22;;
26062;SDS011;13837;48.562;12.108;2023-05-07T10:04:43;6.38;;;5.60;;
26062;SDS011;13837;48.562;12.108;2023-05-07T10:07:10;9.05;;;6.00;;
26062;SDS011;13837;48.562;12.108;2023-05-07T10:09:36;5.85;;;5.32;;
26062;SDS011;13837;48.562;12.108;2023-05-07T10:12:06;5.45;;;4.93;;
26062;SDS011;13837;48.562;12.108;2023-05-07T10:14:33;5.35;;;4.55;;
26062;SDS011;13837;48.562;12.108;2023-05-07T10:16:59;7.25;;;6.15;;
26062;SDS011;13837;48.562;12.108;2023-05-07T10:19:26;6.70;;;6.10;;
26062;SDS011;13837;48.562;12.108;2023-05-07T10:21:56;5.93;;;4.45;;
26062;SDS011;13837;48.562;12.108;2023-05-07T10:24:26;4.07;;;3.78;;
26062;SDS011;13837;48.562;12.108;2023-05-07T10:26:53;5.43;;;4.93;;
26062;SDS011;13837;48.562;12.108;2023-05-07T10:34:42;5.63;;;5.13;;
26062;SDS011;13837;48.562;12.108;2023-05-07T10:37:09;6.00;;;5.40;;
26062;SDS011;13837;48.562;12.108;2023-05-07T10:39:36;8.10;;;4.97;;
26062;SDS011;13837;48.562;12.108;2023-05-07T10:42:09;6.05;;;4.72;;
26062;SDS011;13837;48.562;12.108;2023-05-07T10:44:38;5.13;;;4.50;;
26062;SDS011;13837;48.562;12.108;2023-05-07T10:49:38;4.97;;;4.43;;
26062;SDS011;13837;48.562;12.108;2023-05-07T10:52:27;5.07;;;4.68;;
26062;SDS011;13837;48.562;12.108;2023-05-07T10:57:52;3.55;;;3.25;;
26062;SDS011;13837;48.562;12.108;2023-05-07T11:05:31;5.70;;;4.60;;
26062;SDS011;13837;48.562;12.108;2023-05-07T11:08:07;5.63;;;4.13;;
26062;SDS011;13837;48.562;12.108;2023-05-07T11:16:28;5.20;;;3.70;;
26062;SDS011;13837;48.562;12.108;2023-05-07T11:19:01;4.82;;;3.92;;
26062;SDS011;13837;48.562;12.108;2023-05-07T11:24:10;4.32;;;3.42;;
26062;SDS011;13837;48.562;12.108;2023-05-07T11:26:53;5.07;;;4.05;;
26062;SDS011;13837;48.562;12.108;2023-05-07T11:29:21;3.67;;;3.47;;
26062;SDS011;13837;48.562;12.108;2023-05-07T11:31:53;5.72;;;4.57;;
26062;SDS011;13837;48.562;12.108;2023-05-07T11:34:23;5.47;;;3.53;;
26062;SDS011;13837;48.562;12.108;2023-05-07T11:36:51;3.70;;;3.40;;
26062;SDS011;13837;48.562;12.108;2023-05-07T11:39:27;4.75;;;3.33;;
26062;SDS011;13837;48.562;12.108;2023-05-07T11:41:53;5.22;;;4.03;;
26062;SDS011;13837;48.562;12.108;2023-05-07T11:44:20;3.92;;;3.60;;
26062;SDS011;13837;48.562;12.108;2023-05-07T11:46:46;4.05;;;3.75;;
26062;SDS011;13837;48.562;12.108;2023-05-07T11:49:12;3.17;;;2.90;;
26062;SDS011;13837;48.562;12.108;2023-05-07T11:51:38;3.15;;;2.92;;
26062;SDS011;13837;48.562;12.108;2023-05-07T11:54:05;3.60;;;3.30;;
26062;SDS011;13837;48.562;12.108;2023-05-07T11:56:36;4.07;;;3.75;;
26062;SDS011;13837;48.562;12.108;2023-05-07T11:59:04;4.70;;;3.15;;
26062;SDS011;13837;48.562;12.108;2023-05-07T12:01:30;3.97;;;3.00;;
26062;SDS011;13837;48.562;12.108;2023-05-07T12:03:57;3.55;;;3.13;;
26062;SDS011;13837;48.562;12.108;2023-05-07T12:06:23;3.78;;;2.92;;
26062;SDS011;13837;48.562;12.108;2023-05-07T12:08:49;3.58;;;2.63;;
26062;SDS011;13837;48.562;12.108;2023-05-07T12:11:18;2.30;;;2.10;;
26062;SDS011;13837;48.562;12.108;2023-05-07T12:13:48;3.47;;;2.65;;
26062;SDS011;13837;48.562;12.108;2023-05-07T12:16:14;3.80;;;2.50;;
26062;SDS011;13837;48.562;12.108;2023-05-07T12:18:41;2.60;;;2.40;;
26062;SDS011;13837;48.562;12.108;2023-05-07T12:21:07;7.90;;;2.30;;
26062;SDS011;13837;48.562;12.108;2023-05-07T12:23:34;2.40;;;2.20;;
26062;SDS011;13837;48.562;12.108;2023-05-07T12:26:00;2.47;;;2.35;;
26062;SDS011;13837;48.562;12.108;2023-05-07T12:28:27;2.85;;;2.65;;
26062;SDS011;13837;48.562;12.108;2023-05-07T12:30:53;2.95;;;2.47;;
26062;SDS011;13837;48.562;12.108;2023-05-07T12:33:23;2.70;;;2.50;;
26062;SDS011;13837;48.562;12.108;2023-05-07T12:35:49;3.08;;;2.42;;
26062;SDS011;13837;48.562;12.108;2023-05-07T12:38:16;2.72;;;2.35;;
26062;SDS011;13837;48.562;12.108;2023-05-07T12:40:44;2.92;;;2.70;;
26062;SDS011;13837;48.562;12.108;2023-05-07T12:43:17;2.65;;;2.45;;
26062;SDS011;13837;48.562;12.108;2023-05-07T12:45:44;2.40;;;2.30;;
26062;SDS011;13837;48.562;12.108;2023-05-07T12:48:10;2.60;;;2.22;;
26062;SDS011;13837;48.562;12.108;2023-05-07T12:50:36;2.80;;;2.60;;
26062;SDS011;13837;48.562;12.108;2023-05-07T12:53:03;2.42;;;2.22;;
26062;SDS011;13837;48.562;12.108;2023-05-07T12:55:46;3.05;;;2.40;;
26062;SDS011;13837;48.562;12.108;2023-05-07T12:58:16;3.35;;;2.55;;
26062;SDS011;13837;48.562;12.108;2023-05-07T13:00:42;3.33;;;2.35;;
26062;SDS011;13837;48.562;12.108;2023-05-07T13:03:09;3.03;;;2.47;;
26062;SDS011;13837;48.562;12.108;2023-05-07T13:05:35;3.85;;;2.50;;
26062;SDS011;13837;48.562;12.108;2023-05-07T13:08:01;5.38;;;2.30;;
26062;SDS011;13837;48.562;12.108;2023-05-07T13:10:27;2.63;;;2.08;;
26062;SDS011;13837;48.562;12.108;2023-05-07T13:12:54;2.47;;;2.28;;
26062;SDS011;13837;48.562;12.108;2023-05-07T13:15:20;3.15;;;2.40;;
26062;SDS011;13837;48.562;12.108;2023-05-07T13:17:46;2.60;;;2.40;;
26062;SDS011;13837;48.562;12.108;2023-05-07T13:20:12;3.63;;;2.25;;
26062;SDS011;13837;48.562;12.108;2023-05-07T13:22:39;2.33;;;2.13;;
26062;SDS011;13837;48.562;12.108;2023-05-07T13:25:05;2.72;;;2.17;;
26062;SDS011;13837;48.562;12.108;2023-05-07T13:27:31;2.40;;;2.20;;
26062;SDS011;13837;48.562;12.108;2023-05-07T13:30:01;2.40;;;2.20;;
26062;SDS011;13837;48.562;12.108;2023-05-07T13:32:27;2.70;;;2.50;;
26062;SDS011;13837;48.562;12.108;2023-05-07T13:34:53;2.40;;;2.20;;
26062;SDS011;13837;48.562;12.108;2023-05-07T13:37:19;3.65;;;2.35;;
26062;SDS011;13837;48.562;12.108;2023-05-07T13:39:46;2.80;;;2.45;;
26062;SDS011;13837;48.562;12.108;2023-05-07T13:42:12;2.28;;;2.08;;
26062;SDS011;13837;48.562;12.108;2023-05-07T13:44:38;2.00;;;1.90;;
26062;SDS011;13837;48.562;12.108;2023-05-07T13:47:04;2.72;;;2.20;;
26062;SDS011;13837;48.562;12.108;2023-05-07T13:49:31;3.25;;;2.20;;
26062;SDS011;13837;48.562;12.108;2023-05-07T13:51:57;2.95;;;2.00;;
26062;SDS011;13837;48.562;12.108;2023-05-07T13:54:23;2.65;;;2.03;;
26062;SDS011;13837;48.562;12.108;2023-05-07T13:56:49;2.25;;;1.98;;
26062;SDS011;13837;48.562;12.108;2023-05-07T13:59:16;2.58;;;2.15;;
26062;SDS011;13837;48.562;12.108;2023-05-07T14:01:42;2.30;;;2.20;;
26062;SDS011;13837;48.562;12.108;2023-05-07T14:04:08;2.03;;;1.92;;
26062;SDS011;13837;48.562;12.108;2023-05-07T14:06:35;2.47;;;2.28;;
26062;SDS011;13837;48.562;12.108;2023-05-07T14:09:01;3.55;;;2.55;;
26062;SDS011;13837;48.562;12.108;2023-05-07T14:11:27;2.15;;;1.92;;
26062;SDS011;13837;48.562;12.108;2023-05-07T14:13:53;2.00;;;1.90;;
26062;SDS011;13837;48.562;12.108;2023-05-07T14:16:21;2.67;;;2.00;;
26062;SDS011;13837;48.562;12.108;2023-05-07T14:18:47;2.20;;;2.10;;
26062;SDS011;13837;48.562;12.108;2023-05-07T14:21:14;2.10;;;2.00;;
26062;SDS011;13837;48.562;12.108;2023-05-07T14:23:40;2.15;;;2.05;;
26062;SDS011;13837;48.562;12.108;2023-05-07T14:26:06;2.58;;;2.03;;
26062;SDS011;13837;48.562;12.108;2023-05-07T14:28:32;2.38;;;2.15;;
26062;SDS011;13837;48.562;12.108;2023-05-07T14:30:58;2.00;;;1.90;;
26062;SDS011;13837;48.562;12.108;2023-05-07T14:33:24;3.85;;;2.33;;
26062;SDS011;13837;48.562;12.108;2023-05-07T14:35:50;2.92;;;2.40;;
26062;SDS011;13837;48.562;12.108;2023-05-07T14:38:17;3.13;;;2.00;;
26062;SDS011;13837;48.562;12.108;2023-05-07T14:40:44;2.95;;;1.70;;
26062;SDS011;13837;48.562;12.108;2023-05-07T14:43:10;3.67;;;1.90;;
26062;SDS011;13837;48.562;12.108;2023-05-07T14:45:36;1.90;;;1.80;;